• Join FlightAware (Why Join?)
  • Login
  • US Flag 
05:16AM EDT


 

Airport Tracker/Info


-or-


 

Live Flight TrackerFlight Track Log ✈ JZA8751 ✈ 07-Jul-2013 ✈ CYUL - CYVO

Flight Track Log - Related Links

Times and Time Zones

All times are in EDT time to prevent confusion due to time zone crossing. See the JZA8751 flight status page for this flight to view local times or setup timezone preferences in your user account.

Time Position Orientation Groundspeed Altitude Reporting Facility
EDT Latitude Longitude Course Direction KTS MPH feet Rate Location/Type
09:10AM 45.4500 -73.7167 360° North 120 138 200  Level Montreal Center
09:11AM 45.4500 -73.7167 360° North 140 161 300 120 Climbing Montreal Center
09:13AM 45.5150 -73.8110 290° West  Level Estimated
09:15AM 45.4500 -73.7167 306° West 120 138 1,100  Level Montreal Center
09:16AM 45.4667 -73.7667 295° West 120 138 2,600 1,200 Climbing Montreal Center
09:17AM 45.4833 -73.8167 295° West 150 173 3,600 1,020 Climbing Montreal Center
09:18AM 45.5000 -73.8667 295° West 160 184 4,700 1,080 Climbing Montreal Center
09:19AM 45.5333 -73.9333 306° West 170 196 5,800 1,080 Climbing Montreal Center
09:20AM 45.7589 -74.2843 306° West  Level FlightAware Approximate
09:20AM 45.5500 -73.9833 295° West 170 196 6,900  Level Montreal Center
09:21AM 45.5833 -74.0333 314° West 170 196 7,900 1,080 Climbing Montreal Center
09:22AM 45.6167 -74.1000 306° West 170 196 9,100 1,140 Climbing Montreal Center
09:23AM 45.6333 -74.1500 296° West 160 184 10,200 960 Climbing Montreal Center
09:24AM 45.6667 -74.2167 306° West 170 196 11,100 900 Climbing Montreal Center
09:25AM 45.6833 -74.2667 296° West 170 196 12,100 960 Climbing Montreal Center
09:26AM 45.7167 -74.3333 306° West 170 196 13,100 900 Climbing Montreal Center
09:27AM 45.7500 -74.3833 314° West 180 207 13,900 840 Climbing Montreal Center
09:28AM 45.7833 -74.4333 314° West 180 207 14,800 900 Climbing Montreal Center
09:29AM 45.8167 -74.4833 314° West 180 207 15,700 600 Climbing Montreal Center
09:30AM 45.8500 -74.5167 325° Northwest 180 207 16,100 120 Climbing Montreal Center
09:31AM 45.9000 -74.6000 311° West 200 230 16,000  Descending Montreal Center
09:32AM 45.9333 -74.6500 314° West 220 253 16,100  Climbing Montreal Center
09:33AM 45.9833 -74.7167 317° Northwest 220 253 16,000  Descending Montreal Center
09:34AM 46.0333 -74.7667 325° Northwest 220 253 16,100  Climbing Montreal Center
09:35AM 46.0667 -74.8333 306° West 220 253 16,000 -60 Descending Montreal Center
09:36AM 46.1167 -74.8833 325° Northwest 220 253 16,000  Level Montreal Center
09:37AM 46.1667 -74.9500 317° Northwest 220 253 16,100  Climbing Montreal Center
09:38AM 46.2167 -75.0167 317° Northwest 220 253 16,000 -60 Descending Montreal Center
09:39AM 46.2667 -75.0667 325° Northwest 220 253 16,000  Level Montreal Center
09:40AM 46.3167 -75.1500 311° West 220 253 16,000  Level Montreal Center
09:41AM 46.3500 -75.1833 325° Northwest 220 253 16,000  Level Montreal Center
09:42AM 46.4000 -75.2667 311° West 220 253 16,000  Level Montreal Center
09:43AM 46.4500 -75.3333 317° Northwest 230 265 16,000  Level Montreal Center
09:44AM 46.4833 -75.3833 314° West 220 253 16,000  Level Montreal Center
09:45AM 46.5333 -75.4500 317° Northwest 230 265 16,000 -60 Level Montreal Center
09:46AM 46.5833 -75.5333 311° West 230 265 15,900  Descending Montreal Center
09:47AM 46.6333 -75.5833 326° Northwest 230 265 16,000  Climbing Montreal Center
09:48AM 46.6667 -75.6500 306° West 230 265 15,900  Descending Montreal Center
09:49AM 46.7167 -75.7000 326° Northwest 230 265 16,000  Climbing Montreal Center
09:50AM 46.7667 -75.7667 318° Northwest 230 265 16,000  Level Montreal Center
09:51AM 46.8167 -75.8500 311° West 230 265 16,000  Level Montreal Center
09:52AM 46.8500 -75.9000 314° West 230 265 16,000  Level Montreal Center
09:53AM 46.9000 -75.9667 318° Northwest 230 265 16,100  Climbing Montreal Center
09:54AM 46.9500 -76.0333 318° Northwest 230 265 16,000 -60 Descending Montreal Center
09:55AM 46.9833 -76.0833 314° West 230 265 16,000  Level Montreal Center
09:56AM 47.0333 -76.1667 311° West 230 265 16,000  Level Montreal Center
09:57AM 47.0833 -76.2167 326° Northwest 230 265 16,000  Level Montreal Center
09:58AM 47.1167 -76.2833 306° West 220 253 16,000  Level Montreal Center
09:59AM 47.1667 -76.3667 311° West 220 253 16,000  Level Montreal Center
10:00AM 47.2167 -76.4167 326° Northwest 220 253 16,000  Level Montreal Center
10:01AM 47.2500 -76.4833 306° West 230 265 16,000  Level Montreal Center
10:02AM 47.3000 -76.5333 326° Northwest 220 253 16,000  Level Montreal Center
10:03AM 47.3500 -76.6167 312° West 220 253 16,000  Level Montreal Center
10:04AM 47.3833 -76.6667 315° West 220 253 16,000  Level Montreal Center
10:05AM 47.4333 -76.7333 318° Northwest 220 253 16,000  Level Montreal Center
10:06AM 47.4833 -76.7833 326° Northwest 220 253 16,000  Level Montreal Center
10:07AM 47.5167 -76.8667 301° West 220 253 16,000 -120 Level Montreal Center
10:08AM 47.5667 -76.9333 318° Northwest 220 253 15,800 -720 Descending Montreal Center
10:09AM 47.6000 -77.0167 301° West 230 265 14,600 -1,080 Descending Montreal Center
10:10AM 47.6333 -77.1167 296° West 250 288 13,700 -900 Descending Montreal Center
10:13AM 47.6992 -77.2199 314° West  Level Estimated
10:20AM 48.0119 -77.5856 320° Northwest  Level FlightAware Approximate
10:21AM 48.0551 -77.6395 320° Northwest  Level FlightAware Approximate
10:22AM 48.0983 -77.6936 320° Northwest  Level FlightAware Approximate
10:23AM 48.1361 -77.7555 307° West  Level FlightAware Approximate
10:24AM 48.1615 -77.8146 165° South  Level FlightAware Approximate
10:25AM 48.1071 -77.7928 165° South  Level FlightAware Approximate